sensor_id;sensor_type;location;lat;lon;timestamp;P1;durP1;ratioP1;P2;durP2;ratioP2
51146;SDS011;37207;53.060;18.726;2023-03-21T00:37:32;36.60;;;33.10;;
51146;SDS011;37207;53.060;18.726;2023-03-21T00:39:58;35.80;;;32.00;;
51146;SDS011;37207;53.060;18.726;2023-03-21T00:42:24;33.00;;;29.60;;
51146;SDS011;37207;53.060;18.726;2023-03-21T00:44:51;27.30;;;24.90;;
51146;SDS011;37207;53.060;18.726;2023-03-21T00:47:16;30.00;;;26.90;;
51146;SDS011;37207;53.060;18.726;2023-03-21T00:49:42;41.20;;;35.50;;
51146;SDS011;37207;53.060;18.726;2023-03-21T00:52:08;56.50;;;40.60;;
51146;SDS011;37207;53.060;18.726;2023-03-21T00:54:35;66.70;;;47.50;;
51146;SDS011;37207;53.060;18.726;2023-03-21T00:57:02;48.20;;;36.00;;
51146;SDS011;37207;53.060;18.726;2023-03-21T00:59:29;39.20;;;32.70;;
51146;SDS011;37207;53.060;18.726;2023-03-21T01:01:56;39.50;;;31.60;;
51146;SDS011;37207;53.060;18.726;2023-03-21T01:04:25;30.50;;;26.00;;
51146;SDS011;37207;53.060;18.726;2023-03-21T01:06:53;27.60;;;24.80;;
51146;SDS011;37207;53.060;18.726;2023-03-21T01:09:20;26.80;;;24.00;;
51146;SDS011;37207;53.060;18.726;2023-03-21T01:11:48;14.80;;;13.80;;
51146;SDS011;37207;53.060;18.726;2023-03-21T01:14:15;12.40;;;11.20;;
51146;SDS011;37207;53.060;18.726;2023-03-21T01:16:42;9.10;;;8.40;;
51146;SDS011;37207;53.060;18.726;2023-03-21T01:19:09;8.30;;;7.70;;
51146;SDS011;37207;53.060;18.726;2023-03-21T01:21:38;7.90;;;7.40;;
51146;SDS011;37207;53.060;18.726;2023-03-21T01:24:04;7.50;;;7.00;;
51146;SDS011;37207;53.060;18.726;2023-03-21T01:26:31;8.00;;;7.50;;
51146;SDS011;37207;53.060;18.726;2023-03-21T01:28:58;8.90;;;8.10;;
51146;SDS011;37207;53.060;18.726;2023-03-21T01:31:24;8.30;;;7.70;;
51146;SDS011;37207;53.060;18.726;2023-03-21T01:33:50;7.40;;;6.70;;
51146;SDS011;37207;53.060;18.726;2023-03-21T01:36:17;21.80;;;11.40;;
51146;SDS011;37207;53.060;18.726;2023-03-21T01:38:47;24.50;;;11.60;;
51146;SDS011;37207;53.060;18.726;2023-03-21T01:41:17;23.10;;;13.10;;
51146;SDS011;37207;53.060;18.726;2023-03-21T01:43:48;23.70;;;12.50;;
51146;SDS011;37207;53.060;18.726;2023-03-21T01:46:27;24.50;;;12.70;;
51146;SDS011;37207;53.060;18.726;2023-03-21T01:49:14;23.00;;;11.00;;
51146;SDS011;37207;53.060;18.726;2023-03-21T01:51:49;21.30;;;11.50;;
51146;SDS011;37207;53.060;18.726;2023-03-21T01:54:23;11.10;;;9.10;;
51146;SDS011;37207;53.060;18.726;2023-03-21T01:56:54;8.40;;;7.70;;
51146;SDS011;37207;53.060;18.726;2023-03-21T01:59:27;8.60;;;8.00;;
51146;SDS011;37207;53.060;18.726;2023-03-21T02:02:18;8.70;;;8.00;;
51146;SDS011;37207;53.060;18.726;2023-03-21T02:04:58;8.40;;;7.70;;
51146;SDS011;37207;53.060;18.726;2023-03-21T02:07:33;7.10;;;6.60;;
51146;SDS011;37207;53.060;18.726;2023-03-21T02:10:04;6.20;;;5.80;;
51146;SDS011;37207;53.060;18.726;2023-03-21T02:12:34;6.30;;;5.90;;
51146;SDS011;37207;53.060;18.726;2023-03-21T02:15:00;5.30;;;4.90;;
51146;SDS011;37207;53.060;18.726;2023-03-21T02:17:48;4.90;;;4.60;;
51146;SDS011;37207;53.060;18.726;2023-03-21T02:20:48;6.20;;;5.80;;
51146;SDS011;37207;53.060;18.726;2023-03-21T02:37:31;5.00;;;4.70;;
51146;SDS011;37207;53.060;18.726;2023-03-21T02:40:09;6.20;;;5.80;;
51146;SDS011;37207;53.060;18.726;2023-03-21T02:45:21;5.20;;;4.90;;
51146;SDS011;37207;53.060;18.726;2023-03-21T02:47:58;5.20;;;4.80;;
51146;SDS011;37207;53.060;18.726;2023-03-21T02:50:45;5.10;;;4.80;;
51146;SDS011;37207;53.060;18.726;2023-03-21T02:53:18;4.90;;;4.60;;
51146;SDS011;37207;53.060;18.726;2023-03-21T02:55:47;5.40;;;4.90;;
51146;SDS011;37207;53.060;18.726;2023-03-21T02:58:16;5.20;;;4.80;;
51146;SDS011;37207;53.060;18.726;2023-03-21T03:00:49;5.50;;;5.10;;
51146;SDS011;37207;53.060;18.726;2023-03-21T03:03:35;5.60;;;5.30;;
51146;SDS011;37207;53.060;18.726;2023-03-21T03:06:12;5.70;;;5.30;;
51146;SDS011;37207;53.060;18.726;2023-03-21T03:11:46;8.10;;;7.40;;
51146;SDS011;37207;53.060;18.726;2023-03-21T03:17:35;7.00;;;6.50;;
51146;SDS011;37207;53.060;18.726;2023-03-21T03:20:13;8.10;;;7.60;;
51146;SDS011;37207;53.060;18.726;2023-03-21T03:23:02;8.00;;;7.50;;
51146;SDS011;37207;53.060;18.726;2023-03-21T03:25:44;7.90;;;7.40;;
51146;SDS011;37207;53.060;18.726;2023-03-21T03:28:26;8.00;;;7.50;;
51146;SDS011;37207;53.060;18.726;2023-03-21T03:30:57;7.60;;;7.10;;
51146;SDS011;37207;53.060;18.726;2023-03-21T03:33:26;8.50;;;7.90;;
51146;SDS011;37207;53.060;18.726;2023-03-21T03:35:54;8.80;;;8.20;;
51146;SDS011;37207;53.060;18.726;2023-03-21T03:38:24;8.90;;;8.30;;
51146;SDS011;37207;53.060;18.726;2023-03-21T03:40:57;8.30;;;7.80;;
51146;SDS011;37207;53.060;18.726;2023-03-21T03:43:44;9.00;;;8.30;;
51146;SDS011;37207;53.060;18.726;2023-03-21T03:46:16;8.90;;;8.30;;
51146;SDS011;37207;53.060;18.726;2023-03-21T03:48:47;8.70;;;8.20;;
51146;SDS011;37207;53.060;18.726;2023-03-21T03:51:23;9.50;;;8.70;;
51146;SDS011;37207;53.060;18.726;2023-03-21T03:54:16;8.30;;;7.80;;
51146;SDS011;37207;53.060;18.726;2023-03-21T03:56:47;9.20;;;8.60;;
51146;SDS011;37207;53.060;18.726;2023-03-21T03:59:15;8.10;;;7.60;;
51146;SDS011;37207;53.060;18.726;2023-03-21T04:01:57;8.80;;;8.30;;
51146;SDS011;37207;53.060;18.726;2023-03-21T04:04:23;9.40;;;8.80;;
51146;SDS011;37207;53.060;18.726;2023-03-21T04:06:53;9.60;;;9.00;;
51146;SDS011;37207;53.060;18.726;2023-03-21T04:09:21;10.30;;;9.60;;
51146;SDS011;37207;53.060;18.726;2023-03-21T04:11:48;9.60;;;9.00;;
51146;SDS011;37207;53.060;18.726;2023-03-21T04:14:14;10.00;;;9.30;;
51146;SDS011;37207;53.060;18.726;2023-03-21T04:16:40;11.60;;;10.70;;
51146;SDS011;37207;53.060;18.726;2023-03-21T04:19:06;11.00;;;10.30;;
51146;SDS011;37207;53.060;18.726;2023-03-21T04:21:32;11.50;;;10.80;;
51146;SDS011;37207;53.060;18.726;2023-03-21T04:23:58;10.90;;;10.20;;
51146;SDS011;37207;53.060;18.726;2023-03-21T04:26:25;11.10;;;10.10;;
51146;SDS011;37207;53.060;18.726;2023-03-21T04:29:26;9.70;;;9.20;;
51146;SDS011;37207;53.060;18.726;2023-03-21T04:32:03;13.50;;;12.50;;
51146;SDS011;37207;53.060;18.726;2023-03-21T04:34:29;15.30;;;14.00;;
51146;SDS011;37207;53.060;18.726;2023-03-21T04:36:57;16.20;;;14.50;;
51146;SDS011;37207;53.060;18.726;2023-03-21T04:39:23;14.80;;;13.50;;
51146;SDS011;37207;53.060;18.726;2023-03-21T04:41:49;16.40;;;14.80;;
51146;SDS011;37207;53.060;18.726;2023-03-21T04:44:15;15.90;;;14.60;;
51146;SDS011;37207;53.060;18.726;2023-03-21T04:46:43;13.10;;;12.30;;
51146;SDS011;37207;53.060;18.726;2023-03-21T04:49:10;18.30;;;16.80;;
51146;SDS011;37207;53.060;18.726;2023-03-21T04:51:36;18.50;;;16.80;;
51146;SDS011;37207;53.060;18.726;2023-03-21T04:54:02;16.10;;;14.60;;
51146;SDS011;37207;53.060;18.726;2023-03-21T04:56:30;15.00;;;13.80;;
51146;SDS011;37207;53.060;18.726;2023-03-21T04:59:06;15.20;;;13.90;;
51146;SDS011;37207;53.060;18.726;2023-03-21T05:01:34;15.10;;;13.70;;
51146;SDS011;37207;53.060;18.726;2023-03-21T05:04:02;15.00;;;13.90;;
51146;SDS011;37207;53.060;18.726;2023-03-21T05:06:30;15.80;;;14.70;;
51146;SDS011;37207;53.060;18.726;2023-03-21T05:08:57;18.40;;;16.80;;
51146;SDS011;37207;53.060;18.726;2023-03-21T05:11:31;19.00;;;17.40;;
51146;SDS011;37207;53.060;18.726;2023-03-21T05:14:00;17.30;;;16.10;;
51146;SDS011;37207;53.060;18.726;2023-03-21T05:16:26;16.90;;;15.80;;
51146;SDS011;37207;53.060;18.726;2023-03-21T05:18:56;16.00;;;14.80;;
51146;SDS011;37207;53.060;18.726;2023-03-21T05:21:24;16.10;;;15.00;;
51146;SDS011;37207;53.060;18.726;2023-03-21T05:23:55;16.80;;;15.40;;
51146;SDS011;37207;53.060;18.726;2023-03-21T05:26:23;16.70;;;15.70;;
51146;SDS011;37207;53.060;18.726;2023-03-21T05:29:03;18.60;;;17.00;;
51146;SDS011;37207;53.060;18.726;2023-03-21T05:31:30;17.70;;;16.30;;
51146;SDS011;37207;53.060;18.726;2023-03-21T05:34:04;23.10;;;21.10;;
51146;SDS011;37207;53.060;18.726;2023-03-21T05:36:29;68.80;;;49.60;;
51146;SDS011;37207;53.060;18.726;2023-03-21T05:39:00;25.20;;;22.80;;
51146;SDS011;37207;53.060;18.726;2023-03-21T05:41:26;19.20;;;17.90;;
51146;SDS011;37207;53.060;18.726;2023-03-21T05:43:52;18.90;;;17.30;;
51146;SDS011;37207;53.060;18.726;2023-03-21T05:46:18;18.70;;;17.30;;
51146;SDS011;37207;53.060;18.726;2023-03-21T05:48:44;19.40;;;18.00;;
51146;SDS011;37207;53.060;18.726;2023-03-21T05:51:13;19.50;;;17.90;;
51146;SDS011;37207;53.060;18.726;2023-03-21T05:53:39;20.50;;;18.70;;
51146;SDS011;37207;53.060;18.726;2023-03-21T05:56:05;19.90;;;18.10;;
51146;SDS011;37207;53.060;18.726;2023-03-21T05:58:43;21.40;;;19.90;;
51146;SDS011;37207;53.060;18.726;2023-03-21T06:01:09;22.20;;;20.20;;
51146;SDS011;37207;53.060;18.726;2023-03-21T06:03:35;22.30;;;20.10;;
51146;SDS011;37207;53.060;18.726;2023-03-21T06:06:09;25.40;;;23.10;;
51146;SDS011;37207;53.060;18.726;2023-03-21T06:08:38;23.00;;;20.90;;
51146;SDS011;37207;53.060;18.726;2023-03-21T06:11:05;24.30;;;22.30;;
51146;SDS011;37207;53.060;18.726;2023-03-21T06:13:37;24.00;;;21.70;;
51146;SDS011;37207;53.060;18.726;2023-03-21T06:16:03;23.10;;;21.00;;
51146;SDS011;37207;53.060;18.726;2023-03-21T06:18:31;22.20;;;20.50;;
51146;SDS011;37207;53.060;18.726;2023-03-21T06:21:07;24.00;;;21.50;;
51146;SDS011;37207;53.060;18.726;2023-03-21T06:23:33;23.30;;;21.10;;
51146;SDS011;37207;53.060;18.726;2023-03-21T06:25:59;23.00;;;21.00;;
51146;SDS011;37207;53.060;18.726;2023-03-21T06:28:25;23.50;;;21.50;;
51146;SDS011;37207;53.060;18.726;2023-03-21T06:30:51;25.80;;;23.50;;
51146;SDS011;37207;53.060;18.726;2023-03-21T06:33:20;27.00;;;24.40;;
51146;SDS011;37207;53.060;18.726;2023-03-21T06:35:50;23.40;;;21.30;;
51146;SDS011;37207;53.060;18.726;2023-03-21T06:38:17;30.50;;;27.50;;
51146;SDS011;37207;53.060;18.726;2023-03-21T06:40:47;27.80;;;25.00;;
51146;SDS011;37207;53.060;18.726;2023-03-21T06:43:13;24.60;;;22.30;;
51146;SDS011;37207;53.060;18.726;2023-03-21T06:45:41;27.10;;;24.30;;
51146;SDS011;37207;53.060;18.726;2023-03-21T06:48:09;24.80;;;22.60;;
51146;SDS011;37207;53.060;18.726;2023-03-21T06:50:46;22.70;;;20.80;;
51146;SDS011;37207;53.060;18.726;2023-03-21T06:53:14;22.70;;;20.80;;
51146;SDS011;37207;53.060;18.726;2023-03-21T06:56:00;23.20;;;21.10;;
51146;SDS011;37207;53.060;18.726;2023-03-21T06:58:25;22.40;;;20.50;;
51146;SDS011;37207;53.060;18.726;2023-03-21T07:00:52;20.70;;;19.20;;
51146;SDS011;37207;53.060;18.726;2023-03-21T07:03:18;20.20;;;18.80;;
51146;SDS011;37207;53.060;18.726;2023-03-21T07:05:44;22.00;;;19.90;;
51146;SDS011;37207;53.060;18.726;2023-03-21T07:08:11;20.90;;;19.40;;
51146;SDS011;37207;53.060;18.726;2023-03-21T07:10:42;21.20;;;19.30;;
51146;SDS011;37207;53.060;18.726;2023-03-21T07:13:09;20.00;;;18.60;;
51146;SDS011;37207;53.060;18.726;2023-03-21T07:15:51;21.10;;;19.40;;
51146;SDS011;37207;53.060;18.726;2023-03-21T07:18:19;21.20;;;19.20;;
51146;SDS011;37207;53.060;18.726;2023-03-21T07:20:46;21.20;;;19.50;;
51146;SDS011;37207;53.060;18.726;2023-03-21T07:23:16;20.20;;;18.70;;
51146;SDS011;37207;53.060;18.726;2023-03-21T07:25:43;22.20;;;20.40;;
51146;SDS011;37207;53.060;18.726;2023-03-21T07:28:09;21.50;;;19.80;;
51146;SDS011;37207;53.060;18.726;2023-03-21T07:30:35;21.70;;;20.10;;
51146;SDS011;37207;53.060;18.726;2023-03-21T07:33:01;20.50;;;18.90;;
51146;SDS011;37207;53.060;18.726;2023-03-21T07:35:28;20.50;;;19.00;;
51146;SDS011;37207;53.060;18.726;2023-03-21T07:37:55;19.90;;;18.40;;
51146;SDS011;37207;53.060;18.726;2023-03-21T07:40:21;19.70;;;18.20;;
51146;SDS011;37207;53.060;18.726;2023-03-21T07:42:47;18.90;;;17.50;;
51146;SDS011;37207;53.060;18.726;2023-03-21T07:45:19;18.70;;;17.30;;
51146;SDS011;37207;53.060;18.726;2023-03-21T07:47:49;16.80;;;15.70;;
51146;SDS011;37207;53.060;18.726;2023-03-21T07:50:16;17.90;;;16.70;;
51146;SDS011;37207;53.060;18.726;2023-03-21T07:52:43;17.40;;;16.10;;
51146;SDS011;37207;53.060;18.726;2023-03-21T07:55:09;16.40;;;15.40;;
51146;SDS011;37207;53.060;18.726;2023-03-21T07:57:36;16.80;;;15.80;;
51146;SDS011;37207;53.060;18.726;2023-03-21T08:00:02;17.00;;;15.90;;
51146;SDS011;37207;53.060;18.726;2023-03-21T08:02:38;17.50;;;16.30;;
51146;SDS011;37207;53.060;18.726;2023-03-21T08:05:04;15.40;;;14.40;;
51146;SDS011;37207;53.060;18.726;2023-03-21T08:07:30;15.40;;;14.50;;
51146;SDS011;37207;53.060;18.726;2023-03-21T08:09:57;14.90;;;14.00;;
51146;SDS011;37207;53.060;18.726;2023-03-21T08:12:22;15.20;;;14.10;;
51146;SDS011;37207;53.060;18.726;2023-03-21T08:14:49;13.20;;;12.40;;
51146;SDS011;37207;53.060;18.726;2023-03-21T08:17:15;14.20;;;13.20;;
51146;SDS011;37207;53.060;18.726;2023-03-21T08:19:41;12.80;;;12.10;;
51146;SDS011;37207;53.060;18.726;2023-03-21T08:22:07;13.80;;;13.00;;
51146;SDS011;37207;53.060;18.726;2023-03-21T08:24:32;14.50;;;13.40;;
51146;SDS011;37207;53.060;18.726;2023-03-21T08:26:59;18.90;;;16.00;;
51146;SDS011;37207;53.060;18.726;2023-03-21T08:29:26;18.20;;;16.40;;
51146;SDS011;37207;53.060;18.726;2023-03-21T08:31:52;14.00;;;12.90;;
51146;SDS011;37207;53.060;18.726;2023-03-21T08:34:18;15.70;;;14.40;;
51146;SDS011;37207;53.060;18.726;2023-03-21T08:36:44;14.60;;;13.30;;
51146;SDS011;37207;53.060;18.726;2023-03-21T08:39:11;12.40;;;11.60;;
51146;SDS011;37207;53.060;18.726;2023-03-21T08:41:37;11.10;;;10.40;;
51146;SDS011;37207;53.060;18.726;2023-03-21T08:44:03;11.20;;;10.40;;
51146;SDS011;37207;53.060;18.726;2023-03-21T08:46:31;10.10;;;9.40;;
51146;SDS011;37207;53.060;18.726;2023-03-21T08:48:58;8.80;;;8.20;;
51146;SDS011;37207;53.060;18.726;2023-03-21T08:51:23;8.00;;;7.40;;
51146;SDS011;37207;53.060;18.726;2023-03-21T08:53:49;10.00;;;9.30;;
51146;SDS011;37207;53.060;18.726;2023-03-21T08:56:16;11.50;;;10.50;;
51146;SDS011;37207;53.060;18.726;2023-03-21T08:58:43;9.40;;;8.60;;
51146;SDS011;37207;53.060;18.726;2023-03-21T09:01:09;5.90;;;5.50;;
51146;SDS011;37207;53.060;18.726;2023-03-21T09:03:40;5.80;;;5.40;;
51146;SDS011;37207;53.060;18.726;2023-03-21T09:06:07;5.60;;;5.30;;
51146;SDS011;37207;53.060;18.726;2023-03-21T09:08:36;6.40;;;6.00;;
51146;SDS011;37207;53.060;18.726;2023-03-21T09:11:03;5.50;;;5.20;;
51146;SDS011;37207;53.060;18.726;2023-03-21T09:13:29;5.70;;;5.40;;
51146;SDS011;37207;53.060;18.726;2023-03-21T09:15:55;5.20;;;4.90;;
51146;SDS011;37207;53.060;18.726;2023-03-21T09:18:26;5.90;;;5.50;;
51146;SDS011;37207;53.060;18.726;2023-03-21T09:21:10;6.00;;;5.70;;
51146;SDS011;37207;53.060;18.726;2023-03-21T09:23:39;6.20;;;5.80;;
51146;SDS011;37207;53.060;18.726;2023-03-21T09:26:06;6.00;;;5.60;;
51146;SDS011;37207;53.060;18.726;2023-03-21T09:28:34;5.70;;;5.40;;
51146;SDS011;37207;53.060;18.726;2023-03-21T09:31:03;5.50;;;5.20;;
51146;SDS011;37207;53.060;18.726;2023-03-21T09:33:31;5.20;;;4.90;;
51146;SDS011;37207;53.060;18.726;2023-03-21T09:35:57;5.70;;;5.30;;
51146;SDS011;37207;53.060;18.726;2023-03-21T09:38:25;5.50;;;5.20;;
51146;SDS011;37207;53.060;18.726;2023-03-21T09:41:08;5.20;;;4.90;;
51146;SDS011;37207;53.060;18.726;2023-03-21T09:49:24;8.20;;;7.70;;
51146;SDS011;37207;53.060;18.726;2023-03-21T09:52:00;5.20;;;4.90;;
51146;SDS011;37207;53.060;18.726;2023-03-21T09:54:32;4.30;;;4.00;;
51146;SDS011;37207;53.060;18.726;2023-03-21T09:57:17;3.50;;;3.30;;
51146;SDS011;37207;53.060;18.726;2023-03-21T10:02:37;5.30;;;4.90;;
51146;SDS011;37207;53.060;18.726;2023-03-21T10:05:37;4.70;;;4.30;;
51146;SDS011;37207;53.060;18.726;2023-03-21T10:08:01;4.10;;;3.80;;
51146;SDS011;37207;53.060;18.726;2023-03-21T10:10:47;5.50;;;5.10;;
51146;SDS011;37207;53.060;18.726;2023-03-21T10:13:18;6.30;;;5.80;;
51146;SDS011;37207;53.060;18.726;2023-03-21T10:15:47;6.90;;;6.50;;
51146;SDS011;37207;53.060;18.726;2023-03-21T10:18:23;7.50;;;7.00;;
51146;SDS011;37207;53.060;18.726;2023-03-21T10:20:53;5.70;;;5.30;;
51146;SDS011;37207;53.060;18.726;2023-03-21T10:23:21;6.20;;;5.50;;
51146;SDS011;37207;53.060;18.726;2023-03-21T10:26:00;5.50;;;5.20;;
51146;SDS011;37207;53.060;18.726;2023-03-21T10:28:29;5.70;;;5.40;;
51146;SDS011;37207;53.060;18.726;2023-03-21T10:31:00;4.90;;;4.60;;
51146;SDS011;37207;53.060;18.726;2023-03-21T10:33:48;5.50;;;5.10;;
51146;SDS011;37207;53.060;18.726;2023-03-21T10:36:19;5.00;;;4.70;;
51146;SDS011;37207;53.060;18.726;2023-03-21T10:38:59;5.60;;;5.20;;
51146;SDS011;37207;53.060;18.726;2023-03-21T10:41:31;3.90;;;3.60;;
51146;SDS011;37207;53.060;18.726;2023-03-21T10:44:12;3.90;;;3.60;;
51146;SDS011;37207;53.060;18.726;2023-03-21T10:46:54;4.70;;;4.40;;
51146;SDS011;37207;53.060;18.726;2023-03-21T10:49:22;7.30;;;6.70;;
51146;SDS011;37207;53.060;18.726;2023-03-21T10:51:48;5.80;;;5.40;;
51146;SDS011;37207;53.060;18.726;2023-03-21T10:56:54;5.00;;;4.70;;
51146;SDS011;37207;53.060;18.726;2023-03-21T10:59:23;4.70;;;4.40;;
51146;SDS011;37207;53.060;18.726;2023-03-21T11:01:53;5.00;;;4.70;;
51146;SDS011;37207;53.060;18.726;2023-03-21T11:04:23;4.20;;;4.00;;
51146;SDS011;37207;53.060;18.726;2023-03-21T11:12:16;5.10;;;4.70;;
51146;SDS011;37207;53.060;18.726;2023-03-21T11:14:44;4.50;;;4.20;;
51146;SDS011;37207;53.060;18.726;2023-03-21T11:19:45;3.20;;;3.00;;
51146;SDS011;37207;53.060;18.726;2023-03-21T11:22:16;2.90;;;2.80;;
51146;SDS011;37207;53.060;18.726;2023-03-21T11:24:48;5.00;;;4.70;;
51146;SDS011;37207;53.060;18.726;2023-03-21T11:27:17;4.30;;;4.10;;
51146;SDS011;37207;53.060;18.726;2023-03-21T11:29:47;4.10;;;3.90;;
51146;SDS011;37207;53.060;18.726;2023-03-21T11:32:20;4.90;;;4.50;;
51146;SDS011;37207;53.060;18.726;2023-03-21T11:35:11;5.00;;;4.70;;
51146;SDS011;37207;53.060;18.726;2023-03-21T11:37:41;4.70;;;4.40;;
51146;SDS011;37207;53.060;18.726;2023-03-21T11:40:21;5.50;;;4.70;;
51146;SDS011;37207;53.060;18.726;2023-03-21T11:42:50;5.20;;;4.90;;
51146;SDS011;37207;53.060;18.726;2023-03-21T11:45:23;5.70;;;4.90;;
51146;SDS011;37207;53.060;18.726;2023-03-21T11:47:49;6.10;;;5.70;;
51146;SDS011;37207;53.060;18.726;2023-03-21T11:50:19;6.30;;;5.80;;
51146;SDS011;37207;53.060;18.726;2023-03-21T11:55:54;5.60;;;5.20;;
51146;SDS011;37207;53.060;18.726;2023-03-21T12:01:18;4.30;;;4.00;;
51146;SDS011;37207;53.060;18.726;2023-03-21T12:09:45;4.80;;;4.40;;
51146;SDS011;37207;53.060;18.726;2023-03-21T12:12:47;3.60;;;3.40;;
51146;SDS011;37207;53.060;18.726;2023-03-21T12:15:26;3.70;;;3.50;;
51146;SDS011;37207;53.060;18.726;2023-03-21T12:25:45;4.80;;;4.50;;
51146;SDS011;37207;53.060;18.726;2023-03-21T12:28:41;8.00;;;7.50;;
51146;SDS011;37207;53.060;18.726;2023-03-21T12:36:55;2.60;;;2.40;;
51146;SDS011;37207;53.060;18.726;2023-03-21T12:39:29;49.10;;;32.00;;
51146;SDS011;37207;53.060;18.726;2023-03-21T12:44:55;3.90;;;3.60;;
51146;SDS011;37207;53.060;18.726;2023-03-21T12:47:28;3.80;;;2.50;;
51146;SDS011;37207;53.060;18.726;2023-03-21T12:52:42;3.00;;;2.20;;
51146;SDS011;37207;53.060;18.726;2023-03-21T12:58:06;2.60;;;2.50;;
51146;SDS011;37207;53.060;18.726;2023-03-21T13:00:43;2.70;;;2.50;;
51146;SDS011;37207;53.060;18.726;2023-03-21T13:05:54;3.00;;;2.80;;
51146;SDS011;37207;53.060;18.726;2023-03-21T13:08:24;3.60;;;3.30;;
51146;SDS011;37207;53.060;18.726;2023-03-21T13:10:52;2.80;;;2.60;;
51146;SDS011;37207;53.060;18.726;2023-03-21T13:16:24;3.30;;;3.00;;
51146;SDS011;37207;53.060;18.726;2023-03-21T13:24:03;4.00;;;3.60;;
51146;SDS011;37207;53.060;18.726;2023-03-21T13:26:43;3.60;;;3.00;;
51146;SDS011;37207;53.060;18.726;2023-03-21T13:29:31;3.10;;;2.80;;
51146;SDS011;37207;53.060;18.726;2023-03-21T13:32:09;3.20;;;2.90;;
51146;SDS011;37207;53.060;18.726;2023-03-21T13:34:44;4.30;;;3.90;;
51146;SDS011;37207;53.060;18.726;2023-03-21T13:37:12;4.10;;;3.40;;
51146;SDS011;37207;53.060;18.726;2023-03-21T13:39:42;3.90;;;3.00;;
51146;SDS011;37207;53.060;18.726;2023-03-21T13:42:16;6.50;;;4.60;;
51146;SDS011;37207;53.060;18.726;2023-03-21T13:44:47;4.70;;;4.30;;
51146;SDS011;37207;53.060;18.726;2023-03-21T13:56:00;7.00;;;6.30;;
51146;SDS011;37207;53.060;18.726;2023-03-21T13:58:36;9.30;;;7.80;;
51146;SDS011;37207;53.060;18.726;2023-03-21T14:06:24;4.50;;;4.20;;
51146;SDS011;37207;53.060;18.726;2023-03-21T14:08:57;5.10;;;3.70;;
51146;SDS011;37207;53.060;18.726;2023-03-21T14:11:23;5.20;;;4.70;;
51146;SDS011;37207;53.060;18.726;2023-03-21T14:13:49;5.00;;;4.40;;
51146;SDS011;37207;53.060;18.726;2023-03-21T14:16:19;5.00;;;4.50;;
51146;SDS011;37207;53.060;18.726;2023-03-21T14:18:50;4.60;;;4.30;;
51146;SDS011;37207;53.060;18.726;2023-03-21T14:21:20;3.60;;;3.40;;
51146;SDS011;37207;53.060;18.726;2023-03-21T14:23:57;4.40;;;4.00;;
51146;SDS011;37207;53.060;18.726;2023-03-21T14:26:29;4.00;;;3.70;;
51146;SDS011;37207;53.060;18.726;2023-03-21T14:29:02;4.10;;;3.20;;
51146;SDS011;37207;53.060;18.726;2023-03-21T14:31:30;3.30;;;3.10;;
51146;SDS011;37207;53.060;18.726;2023-03-21T14:33:57;3.60;;;3.40;;
51146;SDS011;37207;53.060;18.726;2023-03-21T14:36:27;3.00;;;2.80;;
51146;SDS011;37207;53.060;18.726;2023-03-21T14:38:56;3.80;;;3.50;;
51146;SDS011;37207;53.060;18.726;2023-03-21T14:41:30;4.00;;;3.70;;
51146;SDS011;37207;53.060;18.726;2023-03-21T14:44:15;5.10;;;3.80;;
51146;SDS011;37207;53.060;18.726;2023-03-21T14:47:03;4.30;;;3.90;;
51146;SDS011;37207;53.060;18.726;2023-03-21T14:49:32;4.60;;;4.10;;
51146;SDS011;37207;53.060;18.726;2023-03-21T14:52:01;4.50;;;4.20;;
51146;SDS011;37207;53.060;18.726;2023-03-21T14:54:46;4.20;;;3.90;;
51146;SDS011;37207;53.060;18.726;2023-03-21T14:57:14;4.30;;;4.00;;
51146;SDS011;37207;53.060;18.726;2023-03-21T14:59:46;3.90;;;3.70;;
51146;SDS011;37207;53.060;18.726;2023-03-21T15:02:16;4.30;;;4.10;;
51146;SDS011;37207;53.060;18.726;2023-03-21T15:04:47;4.20;;;3.90;;
51146;SDS011;37207;53.060;18.726;2023-03-21T15:07:22;4.00;;;3.80;;
51146;SDS011;37207;53.060;18.726;2023-03-21T15:09:58;7.20;;;4.30;;
51146;SDS011;37207;53.060;18.726;2023-03-21T15:12:31;4.70;;;4.40;;
51146;SDS011;37207;53.060;18.726;2023-03-21T15:14:58;4.40;;;4.00;;
51146;SDS011;37207;53.060;18.726;2023-03-21T15:17:26;3.70;;;3.50;;
51146;SDS011;37207;53.060;18.726;2023-03-21T15:19:52;2.80;;;2.50;;
51146;SDS011;37207;53.060;18.726;2023-03-21T15:22:29;10.60;;;3.40;;
51146;SDS011;37207;53.060;18.726;2023-03-21T15:25:03;10.30;;;4.60;;
51146;SDS011;37207;53.060;18.726;2023-03-21T15:27:34;14.30;;;4.50;;
51146;SDS011;37207;53.060;18.726;2023-03-21T15:30:05;11.60;;;3.90;;
51146;SDS011;37207;53.060;18.726;2023-03-21T15:32:33;12.80;;;3.80;;
51146;SDS011;37207;53.060;18.726;2023-03-21T15:35:05;5.20;;;4.90;;
51146;SDS011;37207;53.060;18.726;2023-03-21T15:37:37;6.90;;;6.30;;
51146;SDS011;37207;53.060;18.726;2023-03-21T15:40:08;27.10;;;16.00;;
51146;SDS011;37207;53.060;18.726;2023-03-21T15:43:02;18.60;;;11.20;;
51146;SDS011;37207;53.060;18.726;2023-03-21T15:48:12;9.40;;;7.60;;
51146;SDS011;37207;53.060;18.726;2023-03-21T15:50:40;5.00;;;4.40;;
51146;SDS011;37207;53.060;18.726;2023-03-21T15:53:16;5.50;;;3.20;;
51146;SDS011;37207;53.060;18.726;2023-03-21T15:55:45;3.30;;;3.00;;
51146;SDS011;37207;53.060;18.726;2023-03-21T15:58:16;3.10;;;2.80;;
51146;SDS011;37207;53.060;18.726;2023-03-21T16:00:52;3.50;;;2.70;;
51146;SDS011;37207;53.060;18.726;2023-03-21T16:03:23;4.70;;;4.30;;
51146;SDS011;37207;53.060;18.726;2023-03-21T16:06:03;4.90;;;4.50;;
51146;SDS011;37207;53.060;18.726;2023-03-21T16:08:36;8.40;;;4.30;;
51146;SDS011;37207;53.060;18.726;2023-03-21T16:11:26;8.40;;;6.00;;
51146;SDS011;37207;53.060;18.726;2023-03-21T16:13:54;8.90;;;5.20;;
51146;SDS011;37207;53.060;18.726;2023-03-21T16:16:22;15.70;;;8.50;;
51146;SDS011;37207;53.060;18.726;2023-03-21T16:21:17;67.70;;;26.70;;
51146;SDS011;37207;53.060;18.726;2023-03-21T16:23:45;126.30;;;56.20;;
51146;SDS011;37207;53.060;18.726;2023-03-21T16:26:13;147.90;;;66.20;;
51146;SDS011;37207;53.060;18.726;2023-03-21T16:28:47;45.80;;;25.00;;
51146;SDS011;37207;53.060;18.726;2023-03-21T16:31:23;18.80;;;15.10;;
51146;SDS011;37207;53.060;18.726;2023-03-21T16:33:51;77.30;;;44.00;;
51146;SDS011;37207;53.060;18.726;2023-03-21T16:36:17;259.90;;;164.70;;
51146;SDS011;37207;53.060;18.726;2023-03-21T16:38:46;137.20;;;69.50;;
51146;SDS011;37207;53.060;18.726;2023-03-21T16:41:14;41.40;;;24.70;;
51146;SDS011;37207;53.060;18.726;2023-03-21T16:43:41;21.30;;;15.00;;
51146;SDS011;37207;53.060;18.726;2023-03-21T16:46:18;15.70;;;13.30;;
51146;SDS011;37207;53.060;18.726;2023-03-21T16:48:49;72.00;;;26.70;;
51146;SDS011;37207;53.060;18.726;2023-03-21T16:51:23;56.50;;;22.60;;
51146;SDS011;37207;53.060;18.726;2023-03-21T16:53:53;28.90;;;17.50;;
51146;SDS011;37207;53.060;18.726;2023-03-21T16:56:22;28.60;;;17.10;;
51146;SDS011;37207;53.060;18.726;2023-03-21T16:58:50;29.90;;;16.30;;
51146;SDS011;37207;53.060;18.726;2023-03-21T17:01:19;40.10;;;14.90;;
51146;SDS011;37207;53.060;18.726;2023-03-21T17:03:46;44.00;;;15.70;;
51146;SDS011;37207;53.060;18.726;2023-03-21T17:06:17;24.10;;;14.50;;
51146;SDS011;37207;53.060;18.726;2023-03-21T17:08:45;66.10;;;34.90;;